Time;durP1;ratioP1;P1;durP2;ratioP2;P2;SDS_P1;SDS_P2;PMS_P1;PMS_P2;Temp;Humidity;BMP_temperature;BMP_pressure;BME280_temperature;BME280_humidity;BME280_pressure;Samples;Min_cycle;Max_cycle;Signal;HPM_P1;HPM_P2
2024/04/12 00:01:41;;;;;;;5.50;2.30;;;;;;;15.47;42.00;101604.79;105329;1257;64248;-62
2024/04/12 00:04:09;;;;;;;7.60;2.60;;;;;;;15.39;42.36;101606.52;105272;1255;61298;-63
2024/04/12 00:06:39;;;;;;;7.30;3.10;;;;;;;15.30;42.49;101603.00;105566;1257;61153;-62
2024/04/12 00:09:17;;;;;;;11.80;3.00;;;;;;;15.22;42.64;101604.12;105216;1253;66416;-60
2024/04/12 00:11:48;;;;;;;6.80;2.80;;;;;;;15.12;42.65;101603.73;105304;1256;70620;-61
2024/04/12 00:14:17;;;;;;;7.50;2.80;;;;;;;15.04;42.79;101599.59;105413;1254;62465;-61
2024/04/12 00:16:50;;;;;;;5.80;2.70;;;;;;;14.97;42.69;101601.57;105244;1256;61295;-59
2024/04/12 00:19:19;;;;;;;6.40;2.40;;;;;;;14.86;42.81;101605.04;105345;1255;61347;-60
2024/04/12 00:21:46;;;;;;;8.40;2.70;;;;;;;14.78;42.89;101602.66;105522;1257;64431;-60
2024/04/12 00:24:15;;;;;;;6.70;2.40;;;;;;;14.73;43.05;101601.10;106212;1255;61305;-61
2024/04/12 00:26:45;;;;;;;6.50;3.00;;;;;;;14.72;43.18;101597.91;105502;1256;62505;-62
2024/04/12 00:29:36;;;;;;;6.20;2.80;;;;;;;14.68;43.19;101603.12;105331;1255;62678;-63
2024/04/12 00:32:16;;;;;;;4.40;2.10;;;;;;;14.61;43.40;101603.86;105478;1256;61171;-59
2024/04/12 00:34:47;;;;;;;7.10;2.30;;;;;;;14.53;43.68;101606.38;105389;1254;64528;-60
2024/04/12 00:37:16;;;;;;;6.90;2.80;;;;;;;14.46;43.90;101601.95;105248;1257;61187;-59
2024/04/12 00:39:49;;;;;;;8.40;2.50;;;;;;;14.42;44.19;101601.59;105238;1256;62508;-59
2024/04/12 00:42:31;;;;;;;5.60;2.30;;;;;;;14.37;44.35;101603.03;105095;1253;61244;-59
2024/04/12 00:45:02;;;;;;;4.60;2.30;;;;;;;14.33;44.48;101601.02;105787;1255;61192;-60
2024/04/12 00:47:32;;;;;;;6.50;2.60;;;;;;;14.33;44.53;101601.24;105774;1253;64508;-59
2024/04/12 00:50:03;;;;;;;6.50;2.60;;;;;;;14.29;44.78;101598.48;105658;1257;61231;-60
2024/04/12 00:52:35;;;;;;;6.50;2.30;;;;;;;14.24;44.85;101602.35;105776;1254;62532;-60
2024/04/12 00:55:08;;;;;;;7.10;1.90;;;;;;;14.16;44.83;101599.45;105832;1256;61456;-59
2024/04/12 00:57:37;;;;;;;5.50;2.40;;;;;;;14.06;44.92;101596.70;105526;1253;61482;-60
2024/04/12 01:00:09;;;;;;;9.80;2.50;;;;;;;13.99;44.89;101597.81;105654;1253;64524;-59
2024/04/12 01:02:39;;;;;;;7.60;2.70;;;;;;;13.90;44.92;101596.32;105546;1255;61197;-58
2024/04/12 01:05:13;;;;;;;5.90;2.10;;;;;;;13.83;44.99;101597.20;105674;1254;63816;-59
2024/04/12 01:07:48;;;;;;;5.90;2.30;;;;;;;13.74;45.02;101596.92;105474;1257;61459;-59
2024/04/12 01:10:21;;;;;;;;;;;;;;;13.68;45.08;101593.55;105454;1253;61329;-60
2024/04/12 01:12:54;;;;;;;7.00;2.50;;;;;;;13.60;45.11;101592.90;106054;1257;65710;-61
2024/04/12 01:15:24;;;;;;;8.10;2.80;;;;;;;13.52;45.23;101591.48;106064;1256;61276;-59
2024/04/12 01:17:56;;;;;;;5.20;2.40;;;;;;;13.48;45.36;101590.42;105238;1256;62519;-60
2024/04/12 01:20:25;;;;;;;7.70;2.70;;;;;;;13.43;45.37;101590.23;106796;1253;61285;-58
2024/04/12 01:22:58;;;;;;;5.80;1.50;;;;;;;13.38;45.44;101591.84;105243;1257;61156;-60
2024/04/12 01:25:26;;;;;;;7.20;2.70;;;;;;;13.33;45.51;101593.58;105253;1253;64620;-59
2024/04/12 01:27:55;;;;;;;7.40;2.40;;;;;;;13.29;45.56;101590.16;105742;1253;61454;-60
2024/04/12 01:30:30;;;;;;;7.90;2.60;;;;;;;13.26;45.70;101595.48;105137;1259;62554;-60
2024/04/12 01:32:58;;;;;;;6.20;2.80;;;;;;;13.22;45.72;101594.00;105484;1258;334305;-62
2024/04/12 01:37:21;;;;;;;4.30;1.30;;;;;;;12.91;46.40;101590.42;102246;1291;601140;-59
2024/04/12 01:39:48;;;;;;;5.90;3.10;;;;;;;13.14;45.84;101587.34;104353;1267;59761;-59
2024/04/12 01:42:16;;;;;;;7.20;3.20;;;;;;;13.15;45.87;101588.14;104659;1268;59721;-59
2024/04/12 01:45:13;;;;;;;7.00;2.60;;;;;;;13.13;46.03;101583.74;104444;1263;64632;-59
2024/04/12 01:47:37;;;;;;;6.80;3.00;;;;;;;13.07;46.31;101585.74;104475;1264;60117;-59
2024/04/12 01:50:05;;;;;;;7.20;3.40;;;;;;;12.99;46.61;101588.27;104718;1266;169505;-60
2024/04/12 01:52:49;;;;;;;6.00;2.40;;;;;;;12.91;46.70;101585.08;105917;1261;59746;-60
2024/04/12 01:55:18;;;;;;;7.00;2.90;;;;;;;12.86;46.67;101584.11;104756;1266;61295;-60
2024/04/12 01:57:51;;;;;;;6.50;3.10;;;;;;;12.80;46.72;101589.57;104815;1263;62953;-58
2024/04/12 02:00:23;;;;;;;9.50;3.00;;;;;;;12.74;46.85;101588.79;104795;1268;60186;-60
2024/04/12 02:02:52;;;;;;;5.60;2.50;;;;;;;12.69;46.95;101589.66;104807;1265;64291;-60
2024/04/12 02:05:32;;;;;;;9.00;3.00;;;;;;;12.66;47.06;101591.78;106342;1263;60554;-60
2024/04/12 02:11:05;;;;;;;3.40;1.00;;;;;;;12.62;47.28;101588.58;104462;1263;63750;-59
2024/04/12 02:13:37;;;;;;;5.50;2.40;;;;;;;12.57;47.47;101589.92;105044;1266;60555;-62
2024/04/12 02:16:06;;;;;;;6.80;3.10;;;;;;;12.55;47.56;101591.14;104981;1265;64272;-60
2024/04/12 02:18:34;;;;;;;8.20;3.20;;;;;;;12.56;47.55;101588.06;104718;1266;60542;-60
2024/04/12 02:21:05;;;;;;;3.90;1.20;;;;;;;12.57;47.58;101589.77;105126;1266;60460;-59
2024/04/12 02:23:33;;;;;;;6.60;3.10;;;;;;;12.55;47.58;101589.02;104740;1263;63767;-59
2024/04/12 02:26:01;;;;;;;10.50;2.80;;;;;;;12.55;47.54;101589.94;104705;1266;60450;-59
2024/04/12 02:28:29;;;;;;;9.50;2.90;;;;;;;12.55;47.58;101591.14;104742;1267;62488;-60
2024/04/12 02:31:01;;;;;;;6.80;2.90;;;;;;;12.54;47.49;101591.02;104780;1262;60536;-60
2024/04/12 02:33:31;;;;;;;11.00;3.40;;;;;;;12.52;47.46;101594.16;105344;1265;60483;-60
2024/04/12 02:36:16;;;;;;;6.90;2.00;;;;;;;12.50;47.43;101593.23;105146;1266;63804;-60
2024/04/12 02:38:49;;;;;;;9.00;4.80;;;;;;;12.47;47.40;101595.53;105676;1265;61460;-60
2024/04/12 02:41:20;;;;;;;8.60;4.00;;;;;;;12.44;47.45;101595.39;104649;1265;62651;-60
2024/04/12 02:43:55;;;;;;;7.70;3.20;;;;;;;12.43;47.43;101599.30;104814;1262;60595;-60
2024/04/12 02:46:23;;;;;;;20.40;13.40;;;;;;;12.41;47.47;101601.77;104815;1260;60533;-60
2024/04/12 02:48:51;;;;;;;12.00;6.30;;;;;;;12.39;47.47;101604.91;104741;1263;63620;-59
2024/04/12 02:51:22;;;;;;;8.10;2.10;;;;;;;12.37;47.49;101604.02;104753;1268;60458;-60
2024/04/12 02:53:50;;;;;;;7.40;4.20;;;;;;;12.35;47.49;101602.35;105480;1266;63747;-61
2024/04/12 02:56:24;;;;;;;9.70;4.20;;;;;;;12.34;47.59;101602.59;105052;1262;60602;-59
2024/04/12 02:58:54;;;;;;;7.60;3.60;;;;;;;12.32;47.62;101603.42;106696;1260;60081;-59
2024/04/12 03:01:26;;;;;;;5.70;2.00;;;;;;;12.30;47.67;101607.95;105023;1256;67297;-59
2024/04/12 03:03:55;;;;;;;7.50;3.80;;;;;;;12.28;47.68;101609.52;105622;1262;60584;-60
2024/04/12 03:06:25;;;;;;;8.90;3.70;;;;;;;12.25;47.72;101610.42;105583;1257;62530;-60
2024/04/12 03:08:58;;;;;;;8.60;3.70;;;;;;;12.21;47.81;101610.52;107243;1258;60525;-60
2024/04/12 03:11:33;;;;;;;11.40;4.10;;;;;;;12.18;47.84;101613.02;105021;1260;60430;-62
2024/04/12 03:14:09;;;;;;;6.70;3.10;;;;;;;12.14;47.97;101620.13;106309;1256;67565;-61
2024/04/12 03:16:39;;;;;;;8.90;3.40;;;;;;;12.08;48.04;101620.16;104940;1262;61407;-61
2024/04/12 03:19:10;;;;;;;10.90;3.60;;;;;;;12.03;48.11;101625.59;105075;1266;62422;-60
2024/04/12 03:21:40;;;;;;;10.60;3.60;;;;;;;11.97;48.28;101629.86;105227;1258;61609;-60
2024/04/12 03:24:09;;;;;;;4.60;1.90;;;;;;;11.94;48.47;101626.77;105154;1256;60598;-60
2024/04/12 03:26:36;;;;;;;8.50;2.90;;;;;;;11.91;48.74;101624.80;105957;1261;64935;-59
2024/04/12 03:29:05;;;;;;;11.70;3.30;;;;;;;11.88;48.75;101627.41;104951;1262;60454;-59
2024/04/12 03:31:38;;;;;;;11.10;3.10;;;;;;;11.87;48.83;101621.89;105267;1264;62491;-59
2024/04/12 03:34:08;;;;;;;8.80;3.50;;;;;;;11.87;48.73;101622.04;106135;1260;60581;-58
2024/04/12 03:42:08;;;;;;;6.80;2.90;;;;;;;11.90;48.75;101619.39;105712;1257;61771;-59
2024/04/12 03:44:36;;;;;;;7.30;2.90;;;;;;;11.92;48.96;101615.63;105431;1256;71674;-58
2024/04/12 03:47:07;;;;;;;8.70;3.40;;;;;;;11.93;49.14;101617.51;105302;1256;60354;-59
2024/04/12 03:49:40;;;;;;;4.40;1.70;;;;;;;11.96;49.39;101622.06;105295;1262;60526;-59
2024/04/12 03:52:12;;;;;;;6.90;2.80;;;;;;;11.99;49.67;101627.11;105292;1258;64985;-60
2024/04/12 03:54:42;;;;;;;7.30;2.70;;;;;;;12.00;49.71;101627.56;106025;1261;61408;-59
2024/04/12 03:57:10;;;;;;;8.60;3.40;;;;;;;12.02;49.74;101630.95;105185;1262;63210;-60
2024/04/12 03:59:38;;;;;;;5.00;1.60;;;;;;;12.05;49.64;101633.06;105062;1263;60554;-60
2024/04/12 04:02:09;;;;;;;9.60;3.00;;;;;;;12.05;49.64;101628.84;104905;1262;60361;-59
2024/04/12 04:04:47;;;;;;;10.20;3.50;;;;;;;12.04;49.64;101629.79;104911;1263;63706;-64
2024/04/12 04:07:16;;;;;;;4.20;1.20;;;;;;;12.03;49.38;101631.73;104929;1258;60562;-63
2024/04/12 04:09:46;;;;;;;8.60;3.20;;;;;;;12.03;49.24;101633.70;104988;1262;62548;-62
2024/04/12 04:12:14;;;;;;;11.20;4.00;;;;;;;12.02;49.16;101633.59;105036;1262;60421;-58
2024/04/12 04:14:49;;;;;;;8.40;3.30;;;;;;;12.02;49.15;101632.16;104953;1261;60416;-58
2024/04/12 04:17:29;;;;;;;4.60;1.40;;;;;;;12.03;49.16;101635.82;105807;1262;64943;-59
2024/04/12 04:20:05;;;;;;;8.60;3.70;;;;;;;12.03;49.13;101640.56;105372;1262;60596;-60
2024/04/12 04:25:07;;;;;;;8.60;3.90;;;;;;;12.06;49.09;101644.38;105357;1262;61019;-59
2024/04/12 04:27:35;;;;;;;11.20;3.60;;;;;;;12.10;49.16;101642.90;105317;1263;60458;-60
2024/04/12 04:30:05;;;;;;;10.20;1.80;;;;;;;12.15;49.24;101639.61;105142;1262;65255;-62
2024/04/12 04:32:33;;;;;;;9.70;3.70;;;;;;;12.19;49.04;101638.80;104853;1257;69979;-59
2024/04/12 04:35:08;;;;;;;8.10;3.70;;;;;;;12.25;48.78;101640.02;104920;1266;62503;-59
2024/04/12 04:37:38;;;;;;;5.60;1.90;;;;;;;12.30;48.76;101640.16;104945;1259;60579;-60
2024/04/12 04:40:19;;;;;;;7.60;4.00;;;;;;;12.35;48.65;101638.77;105892;1258;60567;-60
2024/04/12 04:42:49;;;;;;;8.00;3.10;;;;;;;12.41;48.40;101641.36;104753;1263;65014;-60
2024/04/12 04:45:18;;;;;;;8.00;3.70;;;;;;;12.47;48.27;101644.48;105069;1261;62868;-61
2024/04/12 04:47:48;;;;;;;8.30;3.40;;;;;;;12.53;48.18;101645.88;105610;1257;63841;-62
2024/04/12 04:50:19;;;;;;;6.60;1.30;;;;;;;12.57;48.09;101646.42;104718;1261;60486;-63
2024/04/12 04:52:50;;;;;;;9.50;3.80;;;;;;;12.63;47.93;101643.19;104778;1263;60460;-60
2024/04/12 04:55:18;;;;;;;13.00;5.10;;;;;;;12.71;47.80;101645.52;104900;1262;76390;-59
2024/04/12 04:57:54;;;;;;;11.90;4.50;;;;;;;12.77;47.75;101643.13;104812;1262;60422;-59
2024/04/12 05:00:23;;;;;;;7.30;3.70;;;;;;;12.84;47.46;101648.98;108920;1257;62476;-59
2024/04/12 05:02:52;;;;;;;9.00;3.90;;;;;;;12.88;47.45;101646.79;108799;1262;62208;-57
2024/04/12 05:05:23;;;;;;;10.00;4.20;;;;;;;12.91;47.42;101648.13;108777;1256;58401;-59
2024/04/12 05:07:57;;;;;;;6.70;2.10;;;;;;;12.96;47.55;101648.84;108880;1260;67135;-57
2024/04/12 05:10:33;;;;;;;10.80;5.30;;;;;;;13.05;47.63;101652.30;106324;1260;61827;-57
2024/04/12 05:13:06;;;;;;;10.90;3.90;;;;;;;13.17;47.78;101655.34;105422;1261;62563;-54
2024/04/12 05:18:12;;;;;;;11.30;5.00;;;;;;;13.42;47.33;101651.98;108797;1257;58604;-58
2024/04/12 05:20:41;;;;;;;9.30;4.20;;;;;;;13.55;46.80;101657.96;108841;1258;73279;-58
2024/04/12 05:23:14;;;;;;;10.20;4.20;;;;;;;13.62;46.59;101658.34;108651;1257;61825;-57
2024/04/12 05:25:46;;;;;;;10.60;4.00;;;;;;;13.71;46.39;101652.36;108712;1258;63825;-67
2024/04/12 05:28:13;;;;;;;9.80;4.00;;;;;;;13.83;46.09;101651.86;108752;1262;58538;-57
2024/04/12 05:30:44;;;;;;;9.40;4.30;;;;;;;13.92;46.14;101652.40;108834;1257;58781;-58
2024/04/12 05:33:12;;;;;;;8.10;3.20;;;;;;;14.04;45.99;101649.64;105155;1262;65501;-59
2024/04/12 05:35:42;;;;;;;9.70;3.60;;;;;;;14.15;45.66;101650.71;105004;1263;68999;-56
2024/04/12 05:38:12;;;;;;;8.90;3.40;;;;;;;14.24;45.07;101644.59;105179;1261;75376;-58
2024/04/12 05:40:41;;;;;;;8.40;3.60;;;;;;;14.33;44.67;101650.05;105050;1258;60995;-61
2024/04/12 05:43:15;;;;;;;11.20;3.50;;;;;;;14.42;44.26;101646.60;105411;1261;62273;-61
2024/04/12 05:45:53;;;;;;;8.50;3.50;;;;;;;14.50;44.13;101648.65;104879;1263;65392;-59
2024/04/12 05:48:22;;;;;;;9.80;3.50;;;;;;;14.57;43.55;101652.68;105095;1257;60500;-58
2024/04/12 05:50:53;;;;;;;10.00;3.70;;;;;;;14.62;43.51;101652.31;105082;1264;64282;-68
2024/04/12 05:53:37;;;;;;;10.40;3.70;;;;;;;14.67;43.66;101648.61;105629;1261;61577;-63
2024/04/12 05:56:21;;;;;;;11.00;3.40;;;;;;;14.73;43.76;101648.64;105022;1263;61454;-56
2024/04/12 05:58:50;;;;;;;10.90;3.70;;;;;;;14.82;42.69;101649.56;104989;1263;69294;-55
2024/04/12 06:01:24;;;;;;;11.30;3.60;;;;;;;14.90;42.35;101647.55;105813;1263;61452;-59
2024/04/12 06:03:53;;;;;;;8.50;3.40;;;;;;;14.97;42.56;101647.45;105172;1254;66089;-60
2024/04/12 06:06:23;;;;;;;8.30;3.60;;;;;;;15.06;42.09;101646.58;105233;1254;61279;-72
2024/04/12 06:08:52;;;;;;;11.50;4.00;;;;;;;15.15;41.98;101647.14;105002;1258;62203;-64
2024/04/12 06:11:21;;;;;;;7.70;3.50;;;;;;;15.24;41.61;101647.52;109103;1252;64908;-64
2024/04/12 06:13:53;;;;;;;9.50;4.30;;;;;;;15.31;41.35;101645.50;109136;1254;63259;-64
2024/04/12 06:16:21;;;;;;;14.20;3.80;;;;;;;15.40;40.74;101645.17;109237;1257;64022;-64
2024/04/12 06:18:50;;;;;;;9.20;3.80;;;;;;;15.49;39.95;101646.23;109074;1254;61109;-70
2024/04/12 06:21:18;;;;;;;10.80;3.40;;;;;;;15.54;39.31;101645.40;105282;1254;59758;-71
2024/04/12 06:23:49;;;;;;;12.40;3.40;;;;;;;15.63;39.24;101643.64;105223;1257;76825;-67
2024/04/12 06:26:17;;;;;;;8.20;3.70;;;;;;;15.70;39.13;101643.45;105162;1259;61669;-63
2024/04/12 06:28:44;;;;;;;11.50;3.70;;;;;;;15.79;39.15;101646.45;105138;1259;62615;-71
2024/04/12 06:31:19;;;;;;;13.40;3.60;;;;;;;15.86;39.07;101647.32;105527;1260;61286;-64
2024/04/12 06:33:50;;;;;;;8.70;3.20;;;;;;;15.92;38.95;101643.94;105131;1258;59826;-69
2024/04/12 06:36:18;;;;;;;7.90;2.70;;;;;;;16.00;38.82;101644.92;105506;1258;76869;-70
2024/04/12 06:38:46;;;;;;;9.70;2.70;;;;;;;16.08;38.69;101642.83;106081;1258;72171;-68
2024/04/12 06:41:15;;;;;;;6.70;2.40;;;;;;;16.16;38.76;101642.52;105653;1254;72718;-66
2024/04/12 06:43:42;;;;;;;10.80;3.40;;;;;;;16.23;38.71;101640.52;106348;1259;61370;-68
2024/04/12 06:46:13;;;;;;;9.80;3.50;;;;;;;16.29;37.77;101644.27;106189;1254;61366;-65
2024/04/12 06:48:41;;;;;;;16.60;3.80;;;;;;;16.34;36.74;101644.05;105101;1259;64894;-66
2024/04/12 06:51:13;;;;;;;16.90;4.30;;;;;;;16.40;36.67;101647.73;105294;1260;61570;-66
2024/04/12 06:53:44;;;;;;;10.20;3.20;;;;;;;16.45;36.72;101648.73;105993;1258;62666;-66
2024/04/12 06:56:20;;;;;;;10.60;3.60;;;;;;;16.50;36.74;101645.83;105969;1254;61311;-65
2024/04/12 06:58:48;;;;;;;9.30;3.40;;;;;;;16.58;36.70;101644.16;105326;1254;62298;-70
2024/04/12 07:01:21;;;;;;;11.30;3.50;;;;;;;16.63;36.05;101645.65;106072;1251;68039;-69
2024/04/12 07:03:52;;;;;;;18.30;3.70;;;;;;;16.70;35.88;101648.56;105240;1254;63808;-66
2024/04/12 07:06:21;;;;;;;11.10;3.40;;;;;;;16.78;35.05;101643.34;105657;1255;74949;-66
2024/04/12 07:08:51;;;;;;;10.90;3.40;;;;;;;16.83;35.48;101645.00;106149;1254;61531;-70
2024/04/12 07:11:19;;;;;;;10.10;2.90;;;;;;;16.89;35.86;101644.30;105223;1254;61421;-67
2024/04/12 07:13:49;;;;;;;11.20;3.50;;;;;;;16.94;35.80;101646.45;105068;1257;68012;-66
2024/04/12 07:16:18;;;;;;;7.80;2.90;;;;;;;16.98;35.20;101645.36;105145;1255;62380;-66
2024/04/12 07:18:46;;;;;;;15.00;3.40;;;;;;;17.00;35.05;101648.14;105360;1255;64847;-68
2024/04/12 07:21:14;;;;;;;9.90;3.30;;;;;;;17.03;34.88;101646.29;105260;1254;61320;-67
2024/04/12 07:23:46;;;;;;;7.60;3.00;;;;;;;17.09;34.90;101646.30;106094;1257;62293;-70
2024/04/12 07:26:27;;;;;;;8.10;2.40;;;;;;;17.11;34.68;101647.41;104959;1257;66891;-69
2024/04/12 07:29:00;;;;;;;8.40;2.60;;;;;;;17.12;34.61;101649.62;109112;1251;60313;-69
2024/04/12 07:31:36;;;;;;;12.20;2.90;;;;;;;17.13;34.68;101648.41;106848;1254;65902;-65
2024/04/12 07:34:07;;;;;;;8.60;2.70;;;;;;;17.16;34.50;101646.09;106354;1252;62313;-66
2024/04/12 07:36:35;;;;;;;9.70;2.50;;;;;;;17.19;34.69;101646.45;106416;1257;61304;-63
2024/04/12 07:39:04;;;;;;;10.00;3.10;;;;;;;17.24;34.66;101642.98;105537;1258;76949;-73
2024/04/12 07:41:33;;;;;;;8.70;2.60;;;;;;;17.30;34.44;101635.27;106218;1254;72587;-65
2024/04/12 07:44:04;;;;;;;9.30;2.80;;;;;;;17.33;34.02;101630.70;107135;1254;73925;-63
2024/04/12 07:46:36;;;;;;;10.90;3.00;;;;;;;17.35;34.16;101627.53;106548;1254;62147;-63
2024/04/12 07:49:07;;;;;;;10.80;3.00;;;;;;;17.36;33.96;101629.19;106163;1254;63040;-63
2024/04/12 07:51:40;;;;;;;12.50;3.00;;;;;;;17.39;34.22;101627.90;105305;1256;66319;-69
2024/04/12 07:54:11;;;;;;;10.00;3.00;;;;;;;17.45;34.73;101621.54;109119;1254;62242;-65
2024/04/12 07:56:43;;;;;;;9.40;2.90;;;;;;;17.53;34.74;101620.81;107004;1254;64119;-57
2024/04/12 07:59:15;;;;;;;10.70;2.90;;;;;;;17.57;33.90;101620.58;106137;1253;61216;-57
2024/04/12 08:01:46;;;;;;;11.60;3.20;;;;;;;17.59;33.83;101615.23;105083;1254;61245;-61
2024/04/12 08:04:23;;;;;;;13.60;2.80;;;;;;;17.64;34.27;101615.31;106010;1255;76865;-59
2024/04/12 08:09:34;;;;;;;8.30;2.60;;;;;;;17.75;33.05;101608.33;105208;1257;62600;-60
2024/04/12 08:12:13;;;;;;;12.60;3.60;;;;;;;17.80;32.85;101604.30;109136;1253;62196;-59
2024/04/12 08:14:51;;;;;;;8.70;3.00;;;;;;;17.84;32.58;101603.94;109180;1253;59368;-58
2024/04/12 08:17:23;;;;;;;10.70;3.10;;;;;;;17.89;32.98;101604.93;109177;1251;67416;-60
2024/04/12 08:19:55;;;;;;;14.10;3.20;;;;;;;17.97;32.98;101599.92;109228;1254;60539;-57
2024/04/12 08:22:25;;;;;;;12.60;2.70;;;;;;;18.06;32.81;101597.77;109201;1251;64251;-57
2024/04/12 08:24:53;;;;;;;9.30;2.60;;;;;;;18.13;32.15;101597.60;109162;1253;59392;-56
2024/04/12 08:27:25;;;;;;;8.00;2.40;;;;;;;18.22;32.59;101597.31;105803;1257;62033;-57
2024/04/12 08:29:57;;;;;;;15.70;3.10;;;;;;;18.30;32.53;101590.66;106714;1254;67274;-56
2024/04/12 08:32:28;;;;;;;10.50;2.90;;;;;;;18.36;32.43;101588.52;105834;1254;62739;-56
2024/04/12 08:34:58;;;;;;;10.60;3.00;;;;;;;18.40;32.06;101587.47;105120;1254;62919;-56
2024/04/12 08:37:36;;;;;;;9.40;3.30;;;;;;;18.42;31.41;101582.50;105696;1254;61973;-55
2024/04/12 08:40:09;;;;;;;9.70;3.80;;;;;;;18.42;31.17;101576.77;105393;1259;61158;-57
2024/04/12 08:42:37;;;;;;;8.90;2.80;;;;;;;18.42;30.97;101578.23;105121;1254;76866;-59
2024/04/12 08:45:13;;;;;;;9.60;3.30;;;;;;;18.44;30.38;101578.41;105428;1254;62521;-63
2024/04/12 08:47:54;;;;;;;9.80;2.90;;;;;;;18.49;30.51;101572.75;107112;1257;63893;-58
2024/04/12 08:50:24;;;;;;;7.70;2.80;;;;;;;18.54;30.65;101566.08;105055;1254;62731;-62
2024/04/12 08:52:53;;;;;;;9.30;2.70;;;;;;;18.60;30.94;101562.07;106883;1256;59988;-62
2024/04/12 08:55:23;;;;;;;13.40;2.70;;;;;;;18.65;30.82;101557.34;105845;1257;68700;-62
2024/04/12 08:58:00;;;;;;;8.70;2.70;;;;;;;18.69;30.32;101550.36;105032;1254;72626;-62
2024/04/12 09:00:32;;;;;;;7.40;2.40;;;;;;;18.73;30.68;101550.37;105699;1257;75789;-61
2024/04/12 09:03:02;;;;;;;16.40;2.50;;;;;;;18.77;30.58;101551.39;105736;1253;61202;-60
2024/04/12 09:05:38;;;;;;;9.80;2.60;;;;;;;18.84;29.94;101551.15;105602;1253;61394;-64
2024/04/12 09:08:05;;;;;;;10.40;2.60;;;;;;;18.91;29.65;101542.28;105521;1254;65973;-59
2024/04/12 09:10:36;;;;;;;10.60;3.20;;;;;;;18.94;29.91;101536.26;105343;1254;61616;-69
2024/04/12 09:13:14;;;;;;;7.60;2.20;;;;;;;18.98;29.59;101538.83;105564;1253;64138;-57
2024/04/12 09:15:45;;;;;;;8.70;3.10;;;;;;;19.00;29.81;101539.08;105360;1256;64400;-60
2024/04/12 09:18:19;;;;;;;9.60;2.40;;;;;;;19.04;29.42;101537.96;105168;1253;61851;-56
2024/04/12 09:20:52;;;;;;;7.70;2.40;;;;;;;19.06;29.29;101529.24;105161;1257;66623;-59
2024/04/12 09:23:32;;;;;;;8.30;2.10;;;;;;;19.11;29.30;101525.70;105983;1257;71435;-57
2024/04/12 09:26:21;;;;;;;11.00;2.50;;;;;;;19.17;28.74;101525.51;106489;1252;64482;-56
2024/04/12 09:28:50;;;;;;;7.30;2.30;;;;;;;19.25;28.90;101520.63;105081;1254;61357;-57
2024/04/12 09:34:23;;;;;;;7.90;2.60;;;;;;;19.27;28.28;101503.16;105209;1257;66541;-56
2024/04/12 09:37:01;;;;;;;8.50;2.10;;;;;;;19.24;28.28;101501.84;105970;1254;70609;-58
2024/04/12 09:39:57;;;;;;;6.90;2.10;;;;;;;19.27;28.77;101499.73;109016;1253;62574;-58
2024/04/12 09:42:18;;;;;;;10.70;2.30;;;;;;;19.34;28.41;101493.92;105045;1253;61368;-57
2024/04/12 09:44:49;;;;;;;5.20;1.70;;;;;;;19.43;28.73;101497.07;105302;1253;61375;-56
2024/04/12 10:37:56;;;;;;;6.70;2.40;;;;;;;20.71;27.27;101436.77;105854;1252;61347;-58
2024/04/12 10:40:23;;;;;;;7.80;1.90;;;;;;;20.77;26.57;101430.14;106744;1253;61349;-58
2024/04/12 10:42:56;;;;;;;6.90;2.00;;;;;;;20.80;26.72;101438.59;105257;1253;67965;-59
2024/04/12 10:45:25;;;;;;;9.50;2.10;;;;;;;20.84;26.98;101434.36;105366;1252;63550;-58
2024/04/12 10:47:54;;;;;;;7.60;2.30;;;;;;;20.90;26.89;101426.09;105813;1254;65833;-59
2024/04/12 10:50:23;;;;;;;4.80;1.80;;;;;;;20.95;26.56;101422.84;105973;1253;61965;-57
2024/04/12 10:52:57;;;;;;;7.60;2.30;;;;;;;21.02;26.16;101425.45;105068;1253;62022;-56
2024/04/12 10:55:29;;;;;;;6.00;1.60;;;;;;;21.07;25.81;101418.86;105813;1254;66936;-57
2024/04/12 10:57:57;;;;;;;6.10;2.10;;;;;;;21.10;26.07;101416.42;105283;1251;65036;-58
2024/04/12 11:00:30;;;;;;;5.30;2.10;;;;;;;21.12;26.32;101412.94;105261;1253;66018;-59
2024/04/12 11:02:59;;;;;;;7.80;2.10;;;;;;;21.15;26.71;101411.20;105179;1257;61331;-60
2024/04/12 11:08:06;;;;;;;6.60;1.90;;;;;;;21.28;25.90;101412.07;105296;1257;69410;-60
2024/04/12 11:10:57;;;;;;;6.60;2.20;;;;;;;21.39;25.70;101406.02;105317;1253;63505;-59
2024/04/12 11:13:35;;;;;;;7.70;2.30;;;;;;;21.43;25.57;101400.48;105967;1253;64908;-62
2024/04/12 11:32:44;;;;;;;5.20;1.90;;;;;;;21.67;25.42;101362.86;105273;1254;61236;-66
2024/04/12 11:35:15;;;;;;;7.30;1.70;;;;;;;21.71;26.07;101364.95;105250;1255;66866;-57
2024/04/12 11:37:43;;;;;;;6.10;1.90;;;;;;;21.82;25.81;101351.33;105313;1255;63794;-67
2024/04/12 11:40:18;;;;;;;7.30;2.00;;;;;;;21.94;25.40;101347.30;105123;1254;67090;-58
2024/04/12 11:42:46;;;;;;;7.40;1.70;;;;;;;22.00;25.58;101344.89;105378;1253;61431;-56
2024/04/12 11:45:17;;;;;;;6.70;2.10;;;;;;;22.05;25.66;101345.50;106141;1254;61269;-58
2024/04/12 11:47:44;;;;;;;8.80;1.70;;;;;;;22.10;25.90;101337.70;105617;1251;66809;-57
2024/04/12 11:50:13;;;;;;;7.80;1.90;;;;;;;22.13;26.09;101339.70;105271;1254;70815;-59
2024/04/12 11:52:41;;;;;;;5.80;1.90;;;;;;;22.06;26.20;101334.95;105087;1258;64888;-58
2024/04/12 11:55:12;;;;;;;5.80;2.00;;;;;;;21.94;26.49;101338.05;105389;1253;61384;-61
2024/04/12 11:57:41;;;;;;;9.20;2.70;;;;;;;21.87;27.07;101336.84;105311;1257;61293;-63
2024/04/12 12:00:09;;;;;;;6.90;2.10;;;;;;;21.82;27.04;101329.56;105169;1253;66934;-59
2024/04/12 12:02:43;;;;;;;4.20;1.40;;;;;;;21.80;27.12;101330.04;105384;1257;63485;-58
2024/04/12 12:05:16;;;;;;;5.90;2.00;;;;;;;21.83;27.38;101328.05;105260;1253;65936;-57
2024/04/12 12:07:45;;;;;;;6.90;1.50;;;;;;;21.93;27.26;101326.23;105399;1254;61369;-57
2024/04/12 12:10:14;;;;;;;4.10;1.80;;;;;;;22.04;27.57;101316.17;105367;1253;61178;-57
2024/04/12 12:12:41;;;;;;;10.70;2.20;;;;;;;22.19;27.53;101312.36;105472;1254;67019;-61
2024/04/12 12:15:13;;;;;;;6.40;2.00;;;;;;;22.35;27.29;101311.24;105527;1254;63877;-63
2024/04/12 12:17:41;;;;;;;5.20;1.60;;;;;;;22.45;27.25;101309.54;105550;1254;65903;-57
2024/04/12 12:20:09;;;;;;;4.80;1.80;;;;;;;22.55;27.61;101309.17;105333;1257;61465;-59
2024/04/12 12:22:38;;;;;;;8.80;2.00;;;;;;;22.72;27.27;101299.27;105213;1257;61280;-60
2024/04/12 12:25:07;;;;;;;7.70;1.60;;;;;;;22.94;27.27;101292.20;105115;1257;67864;-62
2024/04/12 12:27:35;;;;;;;8.50;2.00;;;;;;;23.13;26.84;101291.36;105294;1253;65484;-58
2024/04/12 12:30:13;;;;;;;6.20;2.30;;;;;;;23.27;26.90;101287.31;105242;1253;64888;-60
2024/04/12 12:32:44;;;;;;;7.20;2.00;;;;;;;23.33;26.96;101287.52;105648;1253;61319;-59
2024/04/12 12:35:21;;;;;;;5.60;2.00;;;;;;;23.38;26.69;101283.22;105326;1256;61173;-60
2024/04/12 12:37:50;;;;;;;6.50;1.90;;;;;;;23.42;26.72;101281.13;105387;1253;74198;-56
2024/04/12 12:40:20;;;;;;;6.20;1.90;;;;;;;23.45;27.14;101285.41;105296;1257;62473;-58
2024/04/12 12:42:51;;;;;;;5.20;1.90;;;;;;;23.45;27.27;101283.52;109196;1253;65259;-59
2024/04/12 12:45:19;;;;;;;8.00;1.50;;;;;;;23.41;27.36;101280.85;109251;1251;58968;-58
2024/04/12 12:47:47;;;;;;;5.50;1.70;;;;;;;23.42;27.66;101281.54;109221;1252;59186;-58
2024/04/12 12:50:23;;;;;;;4.50;1.70;;;;;;;23.41;27.58;101271.42;109223;1253;67778;-59
2024/04/12 12:52:51;;;;;;;5.90;2.00;;;;;;;23.42;27.54;101267.48;109229;1255;63498;-59
2024/04/12 12:55:22;;;;;;;7.80;1.60;;;;;;;23.46;27.77;101263.07;109222;1252;64980;-58
2024/04/12 12:58:08;;;;;;;5.50;1.60;;;;;;;23.49;27.95;101256.46;105735;1254;61258;-57
2024/04/12 13:00:37;;;;;;;4.50;1.90;;;;;;;23.52;27.91;101252.54;105553;1257;61315;-58
2024/04/12 13:03:12;;;;;;;6.20;1.70;;;;;;;23.50;27.72;101250.60;105167;1257;67677;-58
2024/04/12 13:05:40;;;;;;;5.90;2.00;;;;;;;23.43;27.76;101245.55;105430;1253;64080;-57